createdAt,value
2018-08-22T00:01:00.697Z,34.2
2018-08-22T00:02:02.021Z,32.7
2018-08-22T00:03:03.643Z,33.7
2018-08-22T00:04:05.237Z,32.7
2018-08-22T00:05:06.863Z,32.7
2018-08-22T00:06:08.151Z,33.7
2018-08-22T00:07:09.745Z,33.7
2018-08-22T00:08:11.194Z,33.2
2018-08-22T00:09:12.606Z,32.7
2018-08-22T00:10:14.225Z,33.2
2018-08-22T00:11:15.652Z,33.2
2018-08-22T00:12:16.914Z,33.2
2018-08-22T00:13:18.349Z,32.7
2018-08-22T00:14:19.776Z,33.7
2018-08-22T00:15:21.560Z,33.2
2018-08-22T00:16:23.008Z,33.2
2018-08-22T00:17:24.608Z,32.7
2018-08-22T00:18:25.891Z,33.2
2018-08-22T00:19:27.495Z,32.7
2018-08-22T00:20:29.098Z,33.7
2018-08-22T00:21:30.694Z,33.7
2018-08-22T00:22:32.277Z,33.2
2018-08-22T00:23:33.998Z,33.7
2018-08-22T00:24:35.089Z,33.2
2018-08-22T00:25:36.701Z,32.7
2018-08-22T00:26:38.315Z,32.7
2018-08-22T00:27:39.924Z,33.7
2018-08-22T00:28:41.193Z,33.2
2018-08-22T00:29:42.784Z,32.7
2018-08-22T00:30:44.410Z,32.3
2018-08-22T00:31:46.021Z,32.7
2018-08-22T00:32:47.467Z,32.7
2018-08-22T00:33:48.722Z,32.7
2018-08-22T00:34:50.021Z,33.2
2018-08-22T00:35:51.600Z,32.7
2018-08-22T00:36:53.027Z,33.2
2018-08-22T00:37:54.452Z,33.2
2018-08-22T00:38:55.882Z,32.7
2018-08-22T00:39:57.486Z,32.7
2018-08-22T00:40:58.925Z,32.7
2018-08-22T00:42:00.536Z,33.2
2018-08-22T00:43:01.998Z,33.2
2018-08-22T00:44:03.444Z,33.2
2018-08-22T00:45:04.881Z,33.2
2018-08-22T00:46:06.710Z,32.7
2018-08-22T00:47:08.311Z,33.2
2018-08-22T00:48:09.729Z,32.7
2018-08-22T00:49:11.344Z,32.7
2018-08-22T00:50:12.937Z,32.7
2018-08-22T00:51:14.363Z,33.2
2018-08-22T00:52:15.957Z,32.7
2018-08-22T00:53:17.385Z,33.2
2018-08-22T00:54:18.826Z,33.2
2018-08-22T00:55:20.080Z,32.7
2018-08-22T00:56:21.532Z,32.7
2018-08-22T00:57:23.113Z,33.7
2018-08-22T00:58:24.713Z,32.7
2018-08-22T00:59:26.304Z,33.2
2018-08-22T01:00:27.580Z,33.2
2018-08-22T01:01:29.200Z,33.2
2018-08-22T01:02:30.458Z,33.7
2018-08-22T01:03:32.066Z,33.2
2018-08-22T01:04:33.501Z,33.2
2018-08-22T01:05:35.097Z,33.7
2018-08-22T01:06:36.679Z,32.7
2018-08-22T01:07:38.329Z,31.8
2018-08-22T01:08:39.774Z,29.8
2018-08-22T01:09:41.360Z,28.8
2018-08-22T01:10:42.793Z,27.9
2018-08-22T01:11:44.404Z,28.3
2018-08-22T01:12:45.678Z,28.8
2018-08-22T01:13:47.101Z,29.8
2018-08-22T01:14:48.694Z,31.3
2018-08-22T01:15:50.281Z,32.7
2018-08-22T01:16:51.872Z,34.7
2018-08-22T01:17:53.305Z,35.2
2018-08-22T01:18:54.553Z,35.7
2018-08-22T01:19:56.161Z,36.7
2018-08-22T01:20:57.768Z,36.2
2018-08-22T01:21:59.356Z,37.6
2018-08-22T01:23:00.976Z,37.6
2018-08-22T01:24:02.411Z,38.6
2018-08-22T01:25:04.053Z,38.6
2018-08-22T01:26:05.528Z,39.1
2018-08-22T01:27:07.108Z,39.1
2018-08-22T01:28:08.705Z,40.1
2018-08-22T01:29:10.301Z,39.6
2018-08-22T01:30:11.725Z,39.6
2018-08-22T01:31:13.324Z,40.1
2018-08-22T01:32:14.914Z,40.1
2018-08-22T01:33:16.334Z,40.6
2018-08-22T01:34:17.933Z,40.6
2018-08-22T01:35:19.535Z,40.6
2018-08-22T01:36:20.967Z,41.1
2018-08-22T01:37:22.395Z,41.1
2018-08-22T01:38:23.859Z,41.1
2018-08-22T01:39:25.516Z,41.1
2018-08-22T01:40:26.954Z,42
2018-08-22T01:41:28.548Z,40.6
2018-08-22T01:42:29.793Z,41.5
2018-08-22T01:43:31.059Z,41.5
2018-08-22T01:44:32.333Z,42
2018-08-22T01:45:33.758Z,41.5
2018-08-22T01:46:35.206Z,41.5
2018-08-22T01:47:36.821Z,41.5
2018-08-22T01:48:38.413Z,41.5
2018-08-22T01:49:39.998Z,42
2018-08-22T01:50:41.598Z,41.1
2018-08-22T01:51:43.026Z,41.5
2018-08-22T01:52:44.453Z,42
2018-08-22T01:53:46.050Z,41.5
2018-08-22T01:54:47.636Z,41.5
2018-08-22T01:55:49.060Z,41.5
2018-08-22T01:56:50.661Z,41.5
2018-08-22T01:57:52.102Z,41.5
2018-08-22T01:58:53.822Z,41.5
2018-08-22T01:59:55.567Z,41.5
2018-08-22T02:00:57.024Z,41.5
2018-08-22T02:01:58.461Z,41.1
2018-08-22T02:02:59.728Z,41.5
2018-08-22T02:04:01.330Z,42
2018-08-22T02:05:02.959Z,42
2018-08-22T02:06:04.445Z,41.5
2018-08-22T02:07:05.885Z,42
2018-08-22T02:08:07.485Z,42
2018-08-22T02:09:08.750Z,41.5
2018-08-22T02:10:10.367Z,42
2018-08-22T02:11:11.809Z,40.6
2018-08-22T02:12:13.403Z,41.1
2018-08-22T02:13:15.011Z,41.5
2018-08-22T02:14:16.431Z,42
2018-08-22T02:15:17.855Z,42
2018-08-22T02:16:19.463Z,40.6
2018-08-22T02:17:20.715Z,41.1
2018-08-22T02:18:22.314Z,41.1
2018-08-22T02:19:23.747Z,41.1
2018-08-22T02:20:25.029Z,41.1
2018-08-22T02:21:26.465Z,41.1
2018-08-22T02:22:28.073Z,41.1
2018-08-22T02:23:29.506Z,40.1
2018-08-22T02:24:30.941Z,40.6
2018-08-22T02:25:32.523Z,40.6
2018-08-22T02:26:34.119Z,41.5
2018-08-22T02:27:35.384Z,40.6
2018-08-22T02:28:36.996Z,41.1
2018-08-22T02:29:38.816Z,41.1
2018-08-22T02:30:40.410Z,41.1
2018-08-22T02:31:41.858Z,40.6
2018-08-22T02:32:43.459Z,40.6
2018-08-22T02:33:45.080Z,40.6
2018-08-22T02:34:46.345Z,40.1
2018-08-22T02:35:47.962Z,40.6
2018-08-22T02:36:49.385Z,40.1
2018-08-22T02:37:50.986Z,40.1
2018-08-22T02:38:52.596Z,40.1
2018-08-22T02:39:53.888Z,40.6
2018-08-22T02:40:55.335Z,40.1
2018-08-22T02:41:56.925Z,40.6
2018-08-22T02:42:58.375Z,40.6
2018-08-22T02:43:59.640Z,40.6
2018-08-22T02:45:01.240Z,40.1
2018-08-22T02:46:02.497Z,40.6
2018-08-22T02:47:04.102Z,40.6
2018-08-22T02:48:05.690Z,40.1
2018-08-22T02:49:07.279Z,40.1
2018-08-22T02:50:08.894Z,40.6
2018-08-22T02:51:10.498Z,40.6
2018-08-22T02:52:11.795Z,40.6
2018-08-22T02:53:13.235Z,40.1
2018-08-22T02:54:14.851Z,40.1
2018-08-22T02:55:16.128Z,39.6
2018-08-22T02:56:17.572Z,40.1
2018-08-22T02:57:18.832Z,40.6
2018-08-22T02:58:20.453Z,40.6
2018-08-22T02:59:22.067Z,40.1
2018-08-22T03:00:23.652Z,40.6
2018-08-22T03:01:25.267Z,39.6
2018-08-22T03:02:26.696Z,40.1
2018-08-22T03:03:28.347Z,39.6
2018-08-22T03:04:29.786Z,39.1
2018-08-22T03:05:31.378Z,40.1
2018-08-22T03:06:32.968Z,39.6
2018-08-22T03:07:34.411Z,40.1
2018-08-22T03:08:36.018Z,40.1
2018-08-22T03:09:37.605Z,39.6
2018-08-22T03:10:39.038Z,39.1
2018-08-22T03:11:40.631Z,39.6
2018-08-22T03:12:42.229Z,39.6
2018-08-22T03:13:43.682Z,39.6
2018-08-22T03:14:45.278Z,39.6
2018-08-22T03:15:46.548Z,40.1
2018-08-22T03:16:48.150Z,39.6
2018-08-22T03:17:49.417Z,39.1
2018-08-22T03:18:51.009Z,40.1
2018-08-22T03:19:52.443Z,39.1
2018-08-22T03:20:54.042Z,39.1
2018-08-22T03:21:55.674Z,39.1
2018-08-22T03:22:57.238Z,39.6
2018-08-22T03:23:58.835Z,39.1
2018-08-22T03:25:00.433Z,39.6
2018-08-22T03:26:01.884Z,40.1
2018-08-22T03:27:03.601Z,39.1
2018-08-22T03:28:05.019Z,39.6
2018-08-22T03:29:06.631Z,39.6
2018-08-22T03:30:08.229Z,39.6
2018-08-22T03:31:09.821Z,40.1
2018-08-22T03:32:11.426Z,40.6
2018-08-22T03:33:13.042Z,39.6
2018-08-22T03:34:14.645Z,39.6
2018-08-22T03:35:16.228Z,40.1
2018-08-22T03:36:17.814Z,40.6
2018-08-22T03:37:19.110Z,40.1
2018-08-22T03:38:20.550Z,39.6
2018-08-22T03:39:22.138Z,40.6
2018-08-22T03:40:23.751Z,41.1
2018-08-22T03:41:25.334Z,41.1
2018-08-22T03:42:26.938Z,40.6
2018-08-22T03:43:28.544Z,40.6
2018-08-22T03:44:29.981Z,41.5
2018-08-22T03:45:31.608Z,41.1
2018-08-22T03:46:32.881Z,41.5
2018-08-22T03:47:34.319Z,41.1
2018-08-22T03:48:35.762Z,41.5
2018-08-22T03:49:37.194Z,41.1
2018-08-22T03:50:38.801Z,42
2018-08-22T03:51:40.083Z,42
2018-08-22T03:52:41.548Z,41.5
2018-08-22T03:53:43.130Z,42
2018-08-22T03:54:44.333Z,41.1
2018-08-22T03:55:45.851Z,41.1
2018-08-22T03:56:47.501Z,42.5
2018-08-22T03:57:48.973Z,41.1
2018-08-22T03:58:50.579Z,41.1
2018-08-22T03:59:52.029Z,41.1
2018-08-22T04:00:53.628Z,41.5
2018-08-22T04:01:54.917Z,41.1
2018-08-22T04:02:56.032Z,41.1
2018-08-22T04:03:57.634Z,42
2018-08-22T04:04:58.904Z,41.1
2018-08-22T04:06:00.575Z,41.1
2018-08-22T04:07:01.856Z,41.1
2018-08-22T04:08:03.298Z,41.1
2018-08-22T04:09:04.900Z,41.5
2018-08-22T04:10:06.531Z,41.5
2018-08-22T04:11:07.976Z,41.1
2018-08-22T04:12:09.415Z,41.5
2018-08-22T04:13:11.016Z,41.5
2018-08-22T04:14:12.144Z,41.1
2018-08-22T04:15:13.750Z,41.5
2018-08-22T04:16:15.330Z,41.5
2018-08-22T04:17:16.611Z,41.1
2018-08-22T04:18:18.211Z,40.6
2018-08-22T04:19:19.507Z,41.1
2018-08-22T04:20:21.133Z,41.5
2018-08-22T04:21:22.565Z,41.1
2018-08-22T04:22:24.011Z,41.1
2018-08-22T04:23:25.447Z,41.5
2018-08-22T04:24:27.291Z,40.6
2018-08-22T04:25:28.745Z,40.6
2018-08-22T04:26:30.190Z,41.1
2018-08-22T04:27:31.808Z,40.6
2018-08-22T04:28:33.249Z,41.1
2018-08-22T04:29:34.935Z,40.6
2018-08-22T04:30:36.571Z,40.6
2018-08-22T04:31:38.017Z,40.6
2018-08-22T04:32:39.462Z,40.6
2018-08-22T04:33:40.735Z,40.1
2018-08-22T04:34:42.336Z,40.6
2018-08-22T04:35:43.653Z,40.1
2018-08-22T04:36:45.104Z,41.1
2018-08-22T04:37:46.425Z,40.6
2018-08-22T04:38:48.035Z,40.6
2018-08-22T04:39:49.665Z,40.6
2018-08-22T04:40:51.265Z,40.6
2018-08-22T04:41:52.546Z,40.1
2018-08-22T04:42:53.809Z,40.6
2018-08-22T04:43:55.944Z,40.6
2018-08-22T04:44:57.556Z,40.6
2018-08-22T04:45:59.149Z,41.1
2018-08-22T04:47:00.774Z,40.1
2018-08-22T04:48:02.146Z,40.1
2018-08-22T04:49:03.818Z,40.6
2018-08-22T04:50:05.439Z,41.1
2018-08-22T04:51:06.879Z,41.5
2018-08-22T04:52:08.163Z,40.1
2018-08-22T04:53:09.774Z,40.1
2018-08-22T04:54:11.409Z,39.6
2018-08-22T04:55:13.021Z,39.6
2018-08-22T04:56:14.623Z,39.6
2018-08-22T04:57:16.230Z,40.6
2018-08-22T04:58:17.700Z,40.1
2018-08-22T04:59:19.314Z,40.1
2018-08-22T05:00:20.926Z,40.1
2018-08-22T05:01:22.543Z,40.1
2018-08-22T05:02:23.993Z,39.6
2018-08-22T05:03:25.428Z,40.6
2018-08-22T05:04:26.870Z,40.6
2018-08-22T05:05:28.482Z,40.6
2018-08-22T05:06:30.129Z,40.6
2018-08-22T05:07:31.754Z,39.6
2018-08-22T05:08:33.215Z,40.1
2018-08-22T05:09:34.821Z,40.1
2018-08-22T05:10:36.098Z,40.6
2018-08-22T05:11:37.380Z,39.6
2018-08-22T05:12:38.821Z,39.6
2018-08-22T05:13:40.276Z,39.6
2018-08-22T05:14:41.710Z,40.1
2018-08-22T05:15:43.317Z,39.1
2018-08-22T05:16:44.742Z,40.1
2018-08-22T05:17:46.357Z,39.6
2018-08-22T05:18:47.969Z,39.6
2018-08-22T05:19:49.408Z,39.6
2018-08-22T05:20:50.875Z,39.1
2018-08-22T05:21:52.487Z,40.1
2018-08-22T05:22:54.115Z,40.1
2018-08-22T05:23:55.713Z,40.1
2018-08-22T05:24:56.985Z,39.6
2018-08-22T05:25:58.416Z,39.1
2018-08-22T05:27:00.035Z,39.6
2018-08-22T05:28:01.644Z,40.1
2018-08-22T05:29:03.247Z,39.6
2018-08-22T05:30:05.961Z,40.1
2018-08-22T05:31:07.495Z,38.6
2018-08-22T05:32:08.936Z,39.6
2018-08-22T05:33:10.531Z,40.1
2018-08-22T05:34:11.964Z,39.6
2018-08-22T05:35:13.395Z,40.6
2018-08-22T05:36:15.019Z,41.1
2018-08-22T05:37:16.461Z,40.6
2018-08-22T05:38:18.060Z,40.1
2018-08-22T05:39:19.660Z,40.6
2018-08-22T05:40:21.263Z,40.6
2018-08-22T05:41:22.711Z,40.6
2018-08-22T05:42:24.321Z,40.6
2018-08-22T05:43:25.773Z,41.1
2018-08-22T05:44:27.419Z,40.6
2018-08-22T05:45:28.720Z,41.5
2018-08-22T05:46:30.317Z,41.5
2018-08-22T05:47:31.917Z,42
2018-08-22T05:48:33.526Z,42
2018-08-22T05:49:35.139Z,40.6
2018-08-22T05:50:36.752Z,40.6
2018-08-22T05:51:38.192Z,41.5
2018-08-22T05:52:39.641Z,41.5
2018-08-22T05:53:41.073Z,42
2018-08-22T05:54:42.683Z,42
2018-08-22T05:55:44.289Z,41.5
2018-08-22T05:56:45.736Z,41.5
2018-08-22T05:57:47.188Z,42
2018-08-22T05:58:48.316Z,42
2018-08-22T05:59:49.920Z,41.5
2018-08-22T06:00:51.404Z,41.1
2018-08-22T06:01:52.857Z,41.5
2018-08-22T06:02:54.301Z,41.5
2018-08-22T06:03:55.911Z,41.1
2018-08-22T06:04:57.532Z,41.5
2018-08-22T06:05:59.130Z,41.5
2018-08-22T06:07:00.743Z,42
2018-08-22T06:08:02.193Z,41.5
2018-08-22T06:09:03.950Z,42
2018-08-22T06:10:05.467Z,42
2018-08-22T06:11:06.631Z,41.5
2018-08-22T06:12:08.456Z,42
2018-08-22T06:13:10.058Z,42
2018-08-22T06:14:11.659Z,41.5
2018-08-22T06:15:13.112Z,42
2018-08-22T06:16:14.565Z,41.5
2018-08-22T06:17:16.182Z,41.5
2018-08-22T06:18:17.626Z,41.5
2018-08-22T06:19:19.267Z,40.6
2018-08-22T06:20:20.715Z,41.1
2018-08-22T06:21:22.325Z,42
2018-08-22T06:22:23.920Z,41.1
2018-08-22T06:23:25.192Z,41.1
2018-08-22T06:24:26.803Z,41.1
2018-08-22T06:25:28.446Z,41.1
2018-08-22T06:26:29.975Z,41.5
2018-08-22T06:27:31.277Z,41.1
2018-08-22T06:28:32.886Z,41.1
2018-08-22T06:29:34.331Z,41.1
2018-08-22T06:30:35.798Z,40.6
2018-08-22T06:31:37.423Z,40.6
2018-08-22T06:32:39.035Z,40.6
2018-08-22T06:33:40.637Z,41.5
2018-08-22T06:34:42.075Z,41.5
2018-08-22T06:35:43.504Z,41.1
2018-08-22T06:36:45.128Z,41.1
2018-08-22T06:37:46.670Z,41.1
2018-08-22T06:38:48.160Z,41.5
2018-08-22T06:39:49.612Z,41.1
2018-08-22T06:40:51.216Z,40.6
2018-08-22T06:41:52.650Z,40.6
2018-08-22T06:42:54.099Z,41.1
2018-08-22T06:43:55.717Z,40.6
2018-08-22T06:44:57.338Z,40.1
2018-08-22T06:45:58.953Z,41.1
2018-08-22T06:47:00.554Z,40.6
2018-08-22T06:48:01.855Z,40.6
2018-08-22T06:49:03.312Z,40.6
2018-08-22T06:50:04.860Z,41.1
2018-08-22T06:51:06.461Z,40.1
2018-08-22T06:52:08.084Z,40.6
2018-08-22T06:53:09.541Z,40.6
2018-08-22T06:54:10.973Z,40.6
2018-08-22T06:55:12.574Z,40.1
2018-08-22T06:56:14.048Z,40.6
2018-08-22T06:57:16.104Z,40.6
2018-08-22T06:58:17.904Z,40.1
2018-08-22T06:59:19.530Z,41.5
2018-08-22T07:00:20.954Z,39.6
2018-08-22T07:01:22.416Z,39.6
2018-08-22T07:02:23.869Z,40.1
2018-08-22T07:03:25.475Z,40.1
2018-08-22T07:04:26.789Z,40.6
2018-08-22T07:05:28.405Z,40.1
2018-08-22T07:06:29.841Z,40.6
2018-08-22T07:07:31.472Z,40.6
2018-08-22T07:08:32.900Z,40.1
2018-08-22T07:09:34.338Z,39.6
2018-08-22T07:10:35.964Z,40.1
2018-08-22T07:11:37.586Z,39.6
2018-08-22T07:12:39.044Z,39.6
2018-08-22T07:13:40.501Z,39.6
2018-08-22T07:14:42.141Z,39.6
2018-08-22T07:15:43.599Z,39.1
2018-08-22T07:16:45.037Z,40.6
2018-08-22T07:17:46.480Z,39.6
2018-08-22T07:18:48.104Z,39.6
2018-08-22T07:19:49.534Z,39.6
2018-08-22T07:20:51.027Z,40.6
2018-08-22T07:21:52.587Z,39.6
2018-08-22T07:22:53.892Z,39.6
2018-08-22T07:23:55.346Z,39.6
2018-08-22T07:24:57.009Z,40.1
2018-08-22T07:25:59.010Z,39.1
2018-08-22T07:27:00.469Z,40.1
2018-08-22T07:28:02.072Z,39.6
2018-08-22T07:29:03.664Z,40.1
2018-08-22T07:30:05.668Z,40.6
2018-08-22T07:31:07.556Z,40.6
2018-08-22T07:32:09.183Z,40.1
2018-08-22T07:33:10.465Z,40.6
2018-08-22T07:34:11.738Z,40.6
2018-08-22T07:35:13.358Z,41.1
2018-08-22T07:36:14.956Z,41.1
2018-08-22T07:37:16.595Z,40.6
2018-08-22T07:38:18.194Z,41.5
2018-08-22T07:39:19.628Z,41.1
2018-08-22T07:40:21.059Z,41.1
2018-08-22T07:41:22.501Z,41.1
2018-08-22T07:42:24.105Z,41.5
2018-08-22T07:43:25.548Z,41.5
2018-08-22T07:44:27.157Z,41.5
2018-08-22T07:45:28.770Z,41.5
2018-08-22T07:46:30.444Z,41.5
2018-08-22T07:47:32.079Z,41.1
2018-08-22T07:48:33.634Z,42
2018-08-22T07:49:35.320Z,41.5
2018-08-22T07:50:36.838Z,42
2018-08-22T07:51:38.453Z,41.5
2018-08-22T07:52:40.066Z,42
2018-08-22T07:53:41.682Z,41.5
2018-08-22T07:54:43.286Z,41.5
2018-08-22T07:55:44.724Z,42
2018-08-22T07:56:46.313Z,42
2018-08-22T07:57:47.567Z,42
2018-08-22T07:58:49.176Z,42
2018-08-22T07:59:50.816Z,42
2018-08-22T08:00:51.947Z,42
2018-08-22T08:01:54.382Z,42
2018-08-22T08:02:56.125Z,42
2018-08-22T08:03:57.733Z,42
2018-08-22T08:04:59.337Z,41.5
2018-08-22T08:06:00.850Z,42
2018-08-22T08:07:02.701Z,41.5
2018-08-22T08:08:04.387Z,41.1
2018-08-22T08:09:06.031Z,41.1
2018-08-22T08:10:07.509Z,41.5
2018-08-22T08:11:09.179Z,41.1
2018-08-22T08:12:10.632Z,41.5
2018-08-22T08:13:12.161Z,42
2018-08-22T08:14:13.840Z,42
2018-08-22T08:15:15.520Z,41.5
2018-08-22T08:16:17.149Z,40.6
2018-08-22T08:17:18.910Z,41.5
2018-08-22T08:18:20.361Z,41.5
2018-08-22T08:19:21.869Z,41.5
2018-08-22T08:20:23.482Z,41.5
2018-08-22T08:21:24.925Z,41.5
2018-08-22T08:22:26.533Z,41.5
2018-08-22T08:23:27.969Z,40.6
2018-08-22T08:24:29.569Z,42
2018-08-22T08:25:31.162Z,41.5
2018-08-22T08:26:32.643Z,41.5
2018-08-22T08:27:34.315Z,41.5
2018-08-22T08:28:35.609Z,41.5
2018-08-22T08:29:37.452Z,41.1
2018-08-22T08:30:39.532Z,41.5
2018-08-22T08:31:41.519Z,41.1
2018-08-22T08:32:42.981Z,40.6
2018-08-22T08:33:44.266Z,40.6
2018-08-22T08:34:45.870Z,40.6
2018-08-22T08:35:47.772Z,41.1
2018-08-22T08:36:49.515Z,41.1
2018-08-22T08:37:51.035Z,41.1
2018-08-22T08:38:52.807Z,41.1
2018-08-22T08:39:54.316Z,40.6
2018-08-22T08:40:55.966Z,41.1
2018-08-22T08:41:57.594Z,41.5
2018-08-22T08:42:58.886Z,41.1
2018-08-22T08:44:00.344Z,40.6
2018-08-22T08:45:02.000Z,41.5
2018-08-22T08:46:03.611Z,40.1
2018-08-22T08:47:05.007Z,41.1
2018-08-22T08:48:06.646Z,41.1
2018-08-22T08:49:08.267Z,40.6
2018-08-22T08:50:09.922Z,40.1
2018-08-22T08:51:11.534Z,40.1
2018-08-22T08:52:13.228Z,40.6
2018-08-22T08:53:14.711Z,40.1
2018-08-22T08:54:15.978Z,40.6
2018-08-22T08:55:17.644Z,40.6
2018-08-22T08:56:19.069Z,40.6
2018-08-22T08:57:21.227Z,39.6
2018-08-22T08:58:23.108Z,40.6
2018-08-22T08:59:24.800Z,39.6
2018-08-22T09:00:26.493Z,39.6
2018-08-22T09:01:27.994Z,39.6
2018-08-22T09:02:29.679Z,40.1
2018-08-22T09:03:31.167Z,40.6
2018-08-22T09:04:32.889Z,40.6
2018-08-22T09:05:34.531Z,40.1
2018-08-22T09:06:36.457Z,40.1
2018-08-22T09:07:37.906Z,40.6
2018-08-22T09:08:39.528Z,40.6
2018-08-22T09:09:40.995Z,40.1
2018-08-22T09:10:42.824Z,40.6
2018-08-22T09:11:44.255Z,40.6
2018-08-22T09:12:45.897Z,39.1
2018-08-22T09:13:47.508Z,39.6
2018-08-22T09:14:48.994Z,39.6
2018-08-22T09:15:50.447Z,40.1
2018-08-22T09:16:52.069Z,40.1
2018-08-22T09:17:53.724Z,40.1
2018-08-22T09:18:55.192Z,39.1
2018-08-22T09:19:56.834Z,39.6
2018-08-22T09:20:58.236Z,39.1
2018-08-22T09:21:59.832Z,39.6
2018-08-22T09:23:01.297Z,40.1
2018-08-22T09:24:03.299Z,40.1
2018-08-22T09:25:04.779Z,40.1
2018-08-22T09:26:06.275Z,40.1
2018-08-22T09:27:07.704Z,40.6
2018-08-22T09:28:09.406Z,40.1
2018-08-22T09:29:11.223Z,40.1
2018-08-22T09:30:12.899Z,40.6
2018-08-22T09:31:14.357Z,40.1
2018-08-22T09:32:15.997Z,40.1
2018-08-22T09:33:17.631Z,40.6
2018-08-22T09:34:19.087Z,40.6
2018-08-22T09:35:20.593Z,41.5
2018-08-22T09:36:22.303Z,41.1
2018-08-22T09:37:23.816Z,40.6
2018-08-22T09:38:25.417Z,41.1
2018-08-22T09:39:27.596Z,41.5
2018-08-22T09:40:29.485Z,41.5
2018-08-22T09:41:30.610Z,41.1
2018-08-22T09:42:32.219Z,41.1
2018-08-22T09:43:33.493Z,42.5
2018-08-22T09:44:34.946Z,42.5
2018-08-22T09:45:36.450Z,42
2018-08-22T09:46:38.231Z,40.6
2018-08-22T09:47:40.252Z,42
2018-08-22T09:48:41.745Z,42.5
2018-08-22T09:49:43.295Z,42
2018-08-22T09:50:44.766Z,42
2018-08-22T09:51:46.505Z,42
2018-08-22T09:52:48.130Z,41.5
2018-08-22T09:53:49.772Z,42.5
2018-08-22T09:54:51.383Z,41.1
2018-08-22T09:55:52.826Z,41.5
2018-08-22T09:56:54.432Z,42
2018-08-22T09:57:55.909Z,42.5
2018-08-22T09:58:57.368Z,42
2018-08-22T09:59:58.927Z,42
2018-08-22T10:01:00.875Z,42
2018-08-22T10:02:02.635Z,42
2018-08-22T10:03:04.259Z,41.5
2018-08-22T10:04:05.901Z,42
2018-08-22T10:05:07.536Z,42
2018-08-22T10:06:09.157Z,42
2018-08-22T10:07:11.360Z,43
2018-08-22T10:08:13.476Z,41.1
2018-08-22T10:09:14.938Z,42.5
2018-08-22T10:10:16.741Z,42.5
2018-08-22T10:11:18.467Z,42.5
2018-08-22T10:12:20.192Z,42.5
2018-08-22T10:13:21.656Z,42
2018-08-22T10:14:23.275Z,41.5
2018-08-22T10:15:24.893Z,42
2018-08-22T10:16:26.524Z,42
2018-08-22T10:17:28.128Z,41.1
2018-08-22T10:18:29.756Z,41.1
2018-08-22T10:19:31.622Z,40.6
2018-08-22T10:20:33.311Z,41.1
2018-08-22T10:21:34.608Z,42
2018-08-22T10:22:36.209Z,41.1
2018-08-22T10:23:37.808Z,41.1
2018-08-22T10:24:39.422Z,41.1
2018-08-22T10:25:40.692Z,42
2018-08-22T10:26:42.250Z,41.5
2018-08-22T10:27:44.073Z,41.1
2018-08-22T10:28:45.901Z,40.6
2018-08-22T10:29:47.513Z,40.6
2018-08-22T10:30:49.127Z,41.1
2018-08-22T10:31:50.773Z,40.6
2018-08-22T10:32:52.959Z,41.1
2018-08-22T10:33:55.043Z,40.1
2018-08-22T10:34:56.665Z,41.1
2018-08-22T10:35:57.941Z,40.6
2018-08-22T10:36:59.247Z,41.1
2018-08-22T10:38:00.704Z,41.1
2018-08-22T10:39:02.324Z,41.1
2018-08-22T10:40:03.987Z,40.6
2018-08-22T10:41:05.614Z,40.6
2018-08-22T10:42:07.235Z,40.6
2018-08-22T10:43:08.686Z,41.1
2018-08-22T10:44:10.313Z,41.1
2018-08-22T10:45:11.994Z,41.1
2018-08-22T10:46:13.626Z,40.1
2018-08-22T10:47:15.263Z,40.6
2018-08-22T10:48:17.016Z,40.6
2018-08-22T10:49:18.652Z,40.1
2018-08-22T10:50:20.281Z,40.1
2018-08-22T10:51:21.906Z,41.1
2018-08-22T10:52:23.506Z,40.6
2018-08-22T10:53:25.137Z,40.6
2018-08-22T10:54:26.776Z,39.6
2018-08-22T10:55:28.426Z,40.6
2018-08-22T10:56:29.754Z,40.1
2018-08-22T10:57:31.353Z,40.6
2018-08-22T10:58:32.657Z,40.6
2018-08-22T10:59:34.298Z,40.6
2018-08-22T11:00:35.922Z,40.6
2018-08-22T11:01:37.370Z,40.1
2018-08-22T11:02:38.850Z,40.6
2018-08-22T11:03:40.478Z,40.1
2018-08-22T11:04:42.111Z,40.1
2018-08-22T11:05:43.731Z,40.6
2018-08-22T11:06:45.176Z,40.1
2018-08-22T11:07:46.644Z,40.6
2018-08-22T11:08:48.109Z,40.6
2018-08-22T11:09:49.436Z,39.6
2018-08-22T11:10:51.163Z,40.6
2018-08-22T11:11:52.609Z,39.1
2018-08-22T11:12:54.063Z,39.6
2018-08-22T11:13:55.696Z,40.1
2018-08-22T11:14:57.303Z,40.1
2018-08-22T11:15:59.082Z,39.1
2018-08-22T11:17:00.890Z,40.1
2018-08-22T11:18:02.320Z,39.6
2018-08-22T11:19:03.955Z,39.6
2018-08-22T11:20:20.260Z,39.6
2018-08-22T11:21:21.545Z,40.1
2018-08-22T11:22:23.161Z,39.6
2018-08-22T11:23:24.965Z,39.6
2018-08-22T11:24:26.257Z,40.1
2018-08-22T11:25:27.868Z,39.6
2018-08-22T11:26:29.466Z,40.6
2018-08-22T11:27:31.084Z,40.6
2018-08-22T11:28:32.708Z,40.6
2018-08-22T11:29:34.308Z,41.1
2018-08-22T11:30:35.747Z,40.6
2018-08-22T11:31:37.212Z,40.6
2018-08-22T11:32:38.647Z,41.1
2018-08-22T11:33:39.913Z,41.1
2018-08-22T11:34:41.382Z,41.5
2018-08-22T11:35:43.025Z,41.5
2018-08-22T11:36:44.475Z,41.5
2018-08-22T11:37:45.775Z,41.5
2018-08-22T11:38:47.063Z,41.1
2018-08-22T11:39:48.660Z,41.5
2018-08-22T11:40:50.109Z,42.5
2018-08-22T11:41:51.708Z,41.5
2018-08-22T11:42:53.310Z,42
2018-08-22T11:43:54.753Z,42
2018-08-22T11:44:56.366Z,41.5
2018-08-22T11:45:57.992Z,41.5
2018-08-22T11:46:59.612Z,41.5
2018-08-22T11:48:01.046Z,42.5
2018-08-22T11:49:02.690Z,41.5
2018-08-22T11:50:03.976Z,42
2018-08-22T11:51:05.595Z,42
2018-08-22T11:52:07.189Z,42
2018-08-22T11:53:08.482Z,42
2018-08-22T11:54:10.122Z,41.5
2018-08-22T11:55:11.573Z,42.5
2018-08-22T11:56:13.203Z,41.5
2018-08-22T11:57:14.492Z,41.5
2018-08-22T11:58:16.085Z,42
2018-08-22T11:59:17.678Z,41.5
2018-08-22T12:00:19.149Z,42
2018-08-22T12:01:20.782Z,42
2018-08-22T12:02:22.414Z,41.5
2018-08-22T12:03:24.050Z,41.5
2018-08-22T12:04:25.685Z,42
2018-08-22T12:05:27.319Z,41.5
2018-08-22T12:06:28.932Z,42
2018-08-22T12:07:30.548Z,41.5
2018-08-22T12:08:32.008Z,41.5
2018-08-22T12:09:33.465Z,42
2018-08-22T12:10:35.195Z,41.5
2018-08-22T12:11:36.762Z,42
2018-08-22T12:12:38.374Z,42
2018-08-22T12:13:40.001Z,42
2018-08-22T12:14:41.617Z,41.1
2018-08-22T12:15:43.060Z,41.5
2018-08-22T12:16:44.690Z,41.1
2018-08-22T12:17:46.117Z,41.1
2018-08-22T12:18:47.712Z,40.6
2018-08-22T12:19:49.312Z,41.5
2018-08-22T12:20:50.942Z,41.1
2018-08-22T12:21:52.413Z,41.1
2018-08-22T12:22:53.991Z,40.6
2018-08-22T12:23:55.399Z,41.1
2018-08-22T12:24:57.022Z,41.1
2018-08-22T12:25:58.634Z,41.5
2018-08-22T12:27:00.258Z,41.1
2018-08-22T12:28:01.889Z,41.5
2018-08-22T12:29:03.335Z,41.1
2018-08-22T12:30:04.956Z,40.1
2018-08-22T12:31:06.734Z,41.1
2018-08-22T12:32:08.464Z,41.1
2018-08-22T12:33:10.097Z,40.6
2018-08-22T12:34:11.723Z,41.5
2018-08-22T12:35:13.337Z,41.5
2018-08-22T12:36:14.962Z,40.6
2018-08-22T12:37:16.577Z,41.1
2018-08-22T12:38:18.194Z,40.6
2018-08-22T12:39:19.836Z,41.1
2018-08-22T12:40:21.458Z,40.1
2018-08-22T12:41:23.058Z,41.1
2018-08-22T12:42:24.519Z,41.1
2018-08-22T12:43:26.147Z,40.6
2018-08-22T12:44:27.884Z,40.6
2018-08-22T12:45:29.441Z,40.6
2018-08-22T12:46:31.057Z,40.1
2018-08-22T12:47:32.671Z,40.6
2018-08-22T12:48:34.294Z,40.6
2018-08-22T12:49:35.410Z,40.1
2018-08-22T12:50:37.039Z,40.6
2018-08-22T12:51:38.662Z,40.6
2018-08-22T12:52:39.777Z,41.1
2018-08-22T12:53:41.221Z,40.6
2018-08-22T12:54:42.685Z,40.1
2018-08-22T12:55:44.143Z,40.1
2018-08-22T12:56:45.592Z,40.6
2018-08-22T12:57:47.227Z,40.1
2018-08-22T12:58:48.517Z,40.6
2018-08-22T12:59:49.969Z,39.6
2018-08-22T13:00:51.439Z,41.1
2018-08-22T13:01:52.877Z,39.6
2018-08-22T13:02:54.523Z,40.1
2018-08-22T13:03:55.992Z,40.6
2018-08-22T13:04:57.609Z,40.6
2018-08-22T13:05:59.209Z,40.6
2018-08-22T13:07:00.828Z,39.6
2018-08-22T13:08:02.295Z,40.6
2018-08-22T13:09:03.897Z,39.1
2018-08-22T13:10:05.526Z,39.6
2018-08-22T13:11:07.215Z,40.6
2018-08-22T13:12:09.092Z,40.1
2018-08-22T13:13:10.706Z,40.1
2018-08-22T13:14:12.329Z,39.6
2018-08-22T13:15:13.937Z,39.6
2018-08-22T13:16:15.382Z,39.6
2018-08-22T13:17:16.984Z,40.1
2018-08-22T13:18:18.431Z,40.1
2018-08-22T13:19:20.024Z,39.6
2018-08-22T13:20:21.635Z,40.1
2018-08-22T13:21:23.280Z,39.6
2018-08-22T13:22:24.397Z,40.1
2018-08-22T13:23:26.033Z,40.1
2018-08-22T13:24:27.464Z,40.6
2018-08-22T13:25:29.081Z,39.6
2018-08-22T13:26:30.543Z,40.1
2018-08-22T13:27:32.177Z,40.6
2018-08-22T13:28:33.802Z,40.1
2018-08-22T13:29:35.420Z,40.6
2018-08-22T13:30:37.034Z,41.1
2018-08-22T13:31:38.313Z,42
2018-08-22T13:32:39.932Z,40.6
2018-08-22T13:33:41.542Z,42
2018-08-22T13:34:42.848Z,41.5
2018-08-22T13:35:44.503Z,41.5
2018-08-22T13:36:46.128Z,42
2018-08-22T13:37:47.759Z,41.5
2018-08-22T13:38:49.194Z,42
2018-08-22T13:39:50.929Z,42
2018-08-22T13:40:52.701Z,42
2018-08-22T13:41:54.313Z,42.5
2018-08-22T13:42:55.835Z,41.5
2018-08-22T13:43:57.443Z,42.5
2018-08-22T13:44:59.064Z,42
2018-08-22T13:46:00.680Z,42.5